Aérodrome :
LOGIN :

S'inscrire | Disclaimer

   EN    FR    IT 

 










Légende :    VFR   VFR Marginal   IFR   IFR Intensif   IFR Très Intensif
Visi : 
Plafond : 
>= 8 km
>= 3000ft
5 à 8 km
1000 à 3000 ft
1500m à 5 km
500 à 1000 ft
800 à 1500m
200 à 500 ft
< 800m
< 200 ft
Symboles :   Orages  Brouillard  Fortes neiges  Fortes précipitations  Vent > 20 kt
SIGMETs :   Divers  Orages  Givrage  Turbulence  Onde Orograph.  Cendres Volcan.






- Altitude de l'aérodrome : 327 ft
- Code IATA : BHX


EGBB - Birmingham

DERNIER METAR :
  • 182220Z 25007KT CAVOK 04/01 Q1014

METARs EXPIRÉS :
  • 182150Z 24005KT 9999 FEW020 04/02 Q1014
  • 182120Z 25004KT 9999 FEW010 SCT028CB 04/02 Q1014
  • 182050Z 27007KT 230V290 9999 5000W VCSH SCT021 SCT030CB 05/02 Q1013
  • 182020Z 29008KT 9999 VCSH SCT024 05/02 Q1013
  • 181950Z 25006KT 210V280 9999 VCSH SCT030CB 05/02 Q1012

TAF TAF EGBB
Valide du 18 à 18h jusqu'au 19 à 18h UTC


181654Z 1818/1918 22012KT 9999 FEW030
TEMPO 1818/1821 25015G25KT 7000 SHRA BKN010
PROB30
TEMPO 1818/1820 25025G40KT 3000 +SHRAGS BKN009 BKN020CB
TEMPO 1909/1913 BKN012
PROB30
TEMPO 1910/1913 8000 -RA BKN009
BECMG 1913/1916 BKN012
TEMPO 1913/1918 6000 RA BKN009
PROB30
TEMPO 1916/1918 22015G25KT
ATIS : +44 121 780 0910



MET'MAP, la Météo Aéronautique d'un coup d'oeil ! - Copyright ORBIFLY Décembre 2007 - Disclaimer

ORBIFLY MET'MAP TEAM :

Programmation & Développement : Alexandra Zaïnal
Sur une idée originale de : Baudouin d'Aumeries
Assistance à la programmation : Marc-Olivier Méhu
Soutien technique & logistique : Manuel Goepfert

Contact : metmap@orbifly.com




SOURCES & CREDITS :

   NOAA